sensor_id;sensor_type;location;lat;lon;timestamp;pressure;altitude;pressure_sealevel;temperature;humidity
12759;BME280;20944;47.048;15.390;2024-02-26T00:00:26;96203.22;;;2.37;100.00
12759;BME280;20944;47.048;15.390;2024-02-26T00:02:56;96474.44;;;3.93;100.00
12759;BME280;20944;47.048;15.390;2024-02-26T00:05:28;96477.78;;;3.99;100.00
12759;BME280;20944;47.048;15.390;2024-02-26T00:07:58;96476.97;;;3.97;100.00
12759;BME280;20944;47.048;15.390;2024-02-26T00:10:31;96470.88;;;3.98;100.00
12759;BME280;20944;47.048;15.390;2024-02-26T00:12:59;96459.63;;;3.99;100.00
12759;BME280;20944;47.048;15.390;2024-02-26T00:15:28;96459.84;;;3.90;100.00
12759;BME280;20944;47.048;15.390;2024-02-26T00:17:56;96435.13;;;3.74;100.00
12759;BME280;20944;47.048;15.390;2024-02-26T00:20:25;96423.22;;;3.65;100.00
12759;BME280;20944;47.048;15.390;2024-02-26T00:22:55;96450.47;;;3.83;100.00
12759;BME280;20944;47.048;15.390;2024-02-26T00:25:23;96451.16;;;3.91;100.00
12759;BME280;20944;47.048;15.390;2024-02-26T00:27:52;96450.38;;;3.88;100.00
12759;BME280;20944;47.048;15.390;2024-02-26T00:30:20;96406.41;;;3.41;100.00
12759;BME280;20944;47.048;15.390;2024-02-26T00:32:49;96439.59;;;3.66;100.00
12759;BME280;20944;47.048;15.390;2024-02-26T00:35:18;96441.34;;;3.65;100.00
12759;BME280;20944;47.048;15.390;2024-02-26T00:37:47;96439.72;;;3.58;100.00
12759;BME280;20944;47.048;15.390;2024-02-26T00:40:17;96444.34;;;3.44;100.00
12759;BME280;20944;47.048;15.390;2024-02-26T00:42:45;96444.34;;;3.44;100.00
12759;BME280;20944;47.048;15.390;2024-02-26T00:45:14;96456.47;;;3.42;100.00
12759;BME280;20944;47.048;15.390;2024-02-26T00:47:43;96435.06;;;3.32;100.00
12759;BME280;20944;47.048;15.390;2024-02-26T00:50:14;96456.56;;;3.36;100.00
12759;BME280;20944;47.048;15.390;2024-02-26T00:52:43;96412.03;;;3.18;100.00
12759;BME280;20944;47.048;15.390;2024-02-26T00:55:12;96423.44;;;3.07;100.00
12759;BME280;20944;47.048;15.390;2024-02-26T00:57:41;96457.56;;;3.29;100.00
12759;BME280;20944;47.048;15.390;2024-02-26T01:00:11;95907.75;;;0.17;100.00
12759;BME280;20944;47.048;15.390;2024-02-26T01:02:39;96445.66;;;3.18;100.00
12759;BME280;20944;47.048;15.390;2024-02-26T01:05:09;96379.03;;;2.85;100.00
12759;BME280;20944;47.048;15.390;2024-02-26T01:07:37;96427.63;;;3.14;100.00
12759;BME280;20944;47.048;15.390;2024-02-26T01:10:07;96418.06;;;3.19;100.00
12759;BME280;20944;47.048;15.390;2024-02-26T01:12:36;96426.66;;;3.19;100.00
12759;BME280;20944;47.048;15.390;2024-02-26T01:15:07;96416.31;;;3.21;100.00
12759;BME280;20944;47.048;15.390;2024-02-26T01:17:36;96435.97;;;3.30;100.00
12759;BME280;20944;47.048;15.390;2024-02-26T01:20:06;96423.69;;;3.41;100.00
12759;BME280;20944;47.048;15.390;2024-02-26T01:22:36;96425.44;;;3.39;100.00
12759;BME280;20944;47.048;15.390;2024-02-26T01:25:05;96402.50;;;3.20;100.00
12759;BME280;20944;47.048;15.390;2024-02-26T01:27:34;96400.97;;;3.10;100.00
12759;BME280;20944;47.048;15.390;2024-02-26T01:30:03;96375.41;;;2.93;100.00
12759;BME280;20944;47.048;15.390;2024-02-26T01:32:33;96422.53;;;3.11;100.00
12759;BME280;20944;47.048;15.390;2024-02-26T01:35:03;96419.09;;;3.10;100.00
12759;BME280;20944;47.048;15.390;2024-02-26T01:37:34;96377.31;;;2.84;100.00
12759;BME280;20944;47.048;15.390;2024-02-26T01:40:03;96419.19;;;3.04;100.00
12759;BME280;20944;47.048;15.390;2024-02-26T01:42:32;96387.56;;;2.90;100.00
12759;BME280;20944;47.048;15.390;2024-02-26T01:45:01;96192.47;;;1.62;100.00
12759;BME280;20944;47.048;15.390;2024-02-26T01:47:30;96232.28;;;2.02;100.00
12759;BME280;20944;47.048;15.390;2024-02-26T01:50:00;96305.34;;;2.59;100.00
12759;BME280;20944;47.048;15.390;2024-02-26T01:52:29;96399.16;;;3.14;100.00
12759;BME280;20944;47.048;15.390;2024-02-26T01:54:57;96371.06;;;2.94;100.00
12759;BME280;20944;47.048;15.390;2024-02-26T01:57:27;96390.00;;;2.97;100.00
12759;BME280;20944;47.048;15.390;2024-02-26T01:59:56;96382.19;;;2.99;100.00
12759;BME280;20944;47.048;15.390;2024-02-26T02:02:25;96307.97;;;2.58;100.00
12759;BME280;20944;47.048;15.390;2024-02-26T02:04:54;96389.69;;;3.13;100.00
12759;BME280;20944;47.048;15.390;2024-02-26T02:07:24;96390.63;;;3.10;100.00
12759;BME280;20944;47.048;15.390;2024-02-26T02:09:53;96379.53;;;3.04;100.00
12759;BME280;20944;47.048;15.390;2024-02-26T02:12:22;96390.66;;;3.07;100.00
12759;BME280;20944;47.048;15.390;2024-02-26T02:14:52;96375.88;;;3.14;100.00
12759;BME280;20944;47.048;15.390;2024-02-26T02:17:21;96380.19;;;3.15;100.00
12759;BME280;20944;47.048;15.390;2024-02-26T02:19:49;96349.41;;;3.00;100.00
12759;BME280;20944;47.048;15.390;2024-02-26T02:22:20;96340.06;;;2.92;100.00
12759;BME280;20944;47.048;15.390;2024-02-26T02:24:48;96351.41;;;2.85;100.00
12759;BME280;20944;47.048;15.390;2024-02-26T02:27:17;96382.75;;;3.16;100.00
12759;BME280;20944;47.048;15.390;2024-02-26T02:29:47;96386.25;;;3.12;100.00
12759;BME280;20944;47.048;15.390;2024-02-26T02:32:17;96325.78;;;2.73;100.00
12759;BME280;20944;47.048;15.390;2024-02-26T02:34:46;96353.16;;;2.85;100.00
12759;BME280;20944;47.048;15.390;2024-02-26T02:37:17;96372.25;;;2.76;100.00
12759;BME280;20944;47.048;15.390;2024-02-26T02:39:49;96367.72;;;2.90;100.00
12759;BME280;20944;47.048;15.390;2024-02-26T02:42:20;96383.38;;;2.81;100.00
12759;BME280;20944;47.048;15.390;2024-02-26T02:44:49;96393.69;;;2.83;100.00
12759;BME280;20944;47.048;15.390;2024-02-26T02:47:17;96392.84;;;2.84;100.00
12759;BME280;20944;47.048;15.390;2024-02-26T02:49:46;96351.13;;;2.53;100.00
12759;BME280;20944;47.048;15.390;2024-02-26T02:52:15;96357.25;;;2.47;100.00
12759;BME280;20944;47.048;15.390;2024-02-26T02:54:43;96376.78;;;2.63;100.00
12759;BME280;20944;47.048;15.390;2024-02-26T02:57:15;96336.41;;;2.56;100.00
12759;BME280;20944;47.048;15.390;2024-02-26T02:59:44;96274.97;;;2.23;100.00
12759;BME280;20944;47.048;15.390;2024-02-26T03:02:12;96385.28;;;2.72;100.00
12759;BME280;20944;47.048;15.390;2024-02-26T03:04:41;96373.38;;;2.61;100.00
12759;BME280;20944;47.048;15.390;2024-02-26T03:07:10;96340.97;;;2.42;100.00
12759;BME280;20944;47.048;15.390;2024-02-26T03:09:39;96373.31;;;2.66;100.00
12759;BME280;20944;47.048;15.390;2024-02-26T03:12:08;96381.28;;;2.54;100.00
12759;BME280;20944;47.048;15.390;2024-02-26T03:14:38;96351.09;;;2.54;100.00
12759;BME280;20944;47.048;15.390;2024-02-26T03:17:07;96363.16;;;2.55;100.00
12759;BME280;20944;47.048;15.390;2024-02-26T03:19:36;96357.88;;;2.61;100.00
12759;BME280;20944;47.048;15.390;2024-02-26T03:22:04;96359.44;;;2.72;100.00
12759;BME280;20944;47.048;15.390;2024-02-26T03:24:33;96358.63;;;2.68;100.00
12759;BME280;20944;47.048;15.390;2024-02-26T03:27:02;96339.25;;;2.42;100.00
12759;BME280;20944;47.048;15.390;2024-02-26T03:29:32;96358.13;;;2.48;100.00
12759;BME280;20944;47.048;15.390;2024-02-26T03:32:02;96352.34;;;2.30;100.00
12759;BME280;20944;47.048;15.390;2024-02-26T03:34:31;96343.88;;;2.22;100.00
12759;BME280;20944;47.048;15.390;2024-02-26T03:37:02;96340.41;;;2.23;100.00
12759;BME280;20944;47.048;15.390;2024-02-26T03:39:30;96319.94;;;2.11;100.00
12759;BME280;20944;47.048;15.390;2024-02-26T03:41:59;96341.06;;;2.36;100.00
12759;BME280;20944;47.048;15.390;2024-02-26T03:44:27;96330.06;;;2.25;100.00
12759;BME280;20944;47.048;15.390;2024-02-26T03:46:56;96315.78;;;2.01;100.00
12759;BME280;20944;47.048;15.390;2024-02-26T03:49:26;96346.41;;;2.27;100.00
12759;BME280;20944;47.048;15.390;2024-02-26T03:51:54;96341.34;;;2.21;100.00
12759;BME280;20944;47.048;15.390;2024-02-26T03:54:23;96276.47;;;1.85;100.00
12759;BME280;20944;47.048;15.390;2024-02-26T03:56:52;96353.19;;;2.34;100.00
12759;BME280;20944;47.048;15.390;2024-02-26T03:59:20;96330.25;;;2.14;100.00
12759;BME280;20944;47.048;15.390;2024-02-26T04:01:50;96272.22;;;1.81;100.00
12759;BME280;20944;47.048;15.390;2024-02-26T04:04:19;96348.78;;;2.39;100.00
12759;BME280;20944;47.048;15.390;2024-02-26T04:06:49;96273.78;;;1.91;100.00
12759;BME280;20944;47.048;15.390;2024-02-26T04:09:18;96338.56;;;2.33;100.00
12759;BME280;20944;47.048;15.390;2024-02-26T04:11:47;96344.56;;;2.33;100.00
12759;BME280;20944;47.048;15.390;2024-02-26T04:14:16;96302.13;;;1.96;100.00
12759;BME280;20944;47.048;15.390;2024-02-26T04:16:45;96292.91;;;1.79;100.00
12759;BME280;20944;47.048;15.390;2024-02-26T04:19:14;96345.66;;;2.19;100.00
12759;BME280;20944;47.048;15.390;2024-02-26T04:21:43;96351.09;;;2.02;100.00
12759;BME280;20944;47.048;15.390;2024-02-26T04:24:13;96241.19;;;1.27;100.00
12759;BME280;20944;47.048;15.390;2024-02-26T04:26:42;96350.13;;;2.07;100.00
12759;BME280;20944;47.048;15.390;2024-02-26T04:29:11;96339.94;;;1.98;100.00
12759;BME280;20944;47.048;15.390;2024-02-26T04:31:39;96358.09;;;1.94;100.00
12759;BME280;20944;47.048;15.390;2024-02-26T04:34:09;96345.97;;;1.99;100.00
12759;BME280;20944;47.048;15.390;2024-02-26T04:36:40;96346.03;;;1.94;100.00
12759;BME280;20944;47.048;15.390;2024-02-26T04:39:09;96356.44;;;1.89;100.00
12759;BME280;20944;47.048;15.390;2024-02-26T04:41:39;96340.09;;;1.89;100.00
12759;BME280;20944;47.048;15.390;2024-02-26T04:44:10;96265.00;;;1.44;100.00
12759;BME280;20944;47.048;15.390;2024-02-26T04:46:39;96336.72;;;1.84;100.00
12759;BME280;20944;47.048;15.390;2024-02-26T04:49:07;96350.25;;;2.00;100.00
12759;BME280;20944;47.048;15.390;2024-02-26T04:51:36;96345.13;;;1.98;100.00
12759;BME280;20944;47.048;15.390;2024-02-26T04:54:05;96339.13;;;1.96;100.00
12759;BME280;20944;47.048;15.390;2024-02-26T04:56:33;96345.06;;;2.03;100.00
12759;BME280;20944;47.048;15.390;2024-02-26T04:59:04;96301.72;;;1.63;100.00
12759;BME280;20944;47.048;15.390;2024-02-26T05:01:33;96323.84;;;1.81;100.00
12759;BME280;20944;47.048;15.390;2024-02-26T05:04:01;96286.31;;;1.58;100.00
12759;BME280;20944;47.048;15.390;2024-02-26T05:06:31;96337.69;;;1.77;100.00
12759;BME280;20944;47.048;15.390;2024-02-26T05:09:00;96308.66;;;1.61;100.00
12759;BME280;20944;47.048;15.390;2024-02-26T05:11:30;96255.59;;;1.42;100.00
12759;BME280;20944;47.048;15.390;2024-02-26T05:13:59;96254.78;;;1.40;100.00
12759;BME280;20944;47.048;15.390;2024-02-26T05:16:29;96262.31;;;1.53;100.00
12759;BME280;20944;47.048;15.390;2024-02-26T05:18:58;96344.22;;;1.99;100.00
12759;BME280;20944;47.048;15.390;2024-02-26T05:21:27;96340.91;;;1.93;100.00
12759;BME280;20944;47.048;15.390;2024-02-26T05:23:55;96346.09;;;1.91;100.00
12759;BME280;20944;47.048;15.390;2024-02-26T05:26:24;96303.53;;;1.56;100.00
12759;BME280;20944;47.048;15.390;2024-02-26T05:28:52;96091.44;;;0.16;100.00
12759;BME280;20944;47.048;15.390;2024-02-26T05:31:28;96294.06;;;1.57;100.00
12759;BME280;20944;47.048;15.390;2024-02-26T05:33:57;96304.22;;;1.71;100.00
12759;BME280;20944;47.048;15.390;2024-02-26T05:36:26;96301.59;;;1.74;100.00
12759;BME280;20944;47.048;15.390;2024-02-26T05:38:55;96328.03;;;1.89;100.00
12759;BME280;20944;47.048;15.390;2024-02-26T05:41:25;96331.59;;;1.81;100.00
12759;BME280;20944;47.048;15.390;2024-02-26T05:43:53;96265.81;;;1.48;100.00
12759;BME280;20944;47.048;15.390;2024-02-26T05:46:22;96304.31;;;1.63;100.00
12759;BME280;20944;47.048;15.390;2024-02-26T05:48:53;96332.50;;;1.78;100.00
12759;BME280;20944;47.048;15.390;2024-02-26T05:51:22;96330.63;;;1.88;100.00
12759;BME280;20944;47.048;15.390;2024-02-26T05:53:51;96347.84;;;1.87;100.00
12759;BME280;20944;47.048;15.390;2024-02-26T05:56:22;96320.44;;;1.79;100.00
12759;BME280;20944;47.048;15.390;2024-02-26T05:58:51;96347.88;;;1.86;100.00
12759;BME280;20944;47.048;15.390;2024-02-26T06:01:21;96339.22;;;1.90;100.00
12759;BME280;20944;47.048;15.390;2024-02-26T06:03:52;96356.34;;;1.96;100.00
12759;BME280;20944;47.048;15.390;2024-02-26T06:06:20;96349.31;;;2.05;100.00
12759;BME280;20944;47.048;15.390;2024-02-26T06:08:51;96354.44;;;2.07;100.00
12759;BME280;20944;47.048;15.390;2024-02-26T06:11:19;96354.53;;;2.01;100.00
12759;BME280;20944;47.048;15.390;2024-02-26T06:13:49;96361.44;;;2.02;100.00
12759;BME280;20944;47.048;15.390;2024-02-26T06:16:18;96326.31;;;1.88;100.00
12759;BME280;20944;47.048;15.390;2024-02-26T06:18:46;96375.03;;;2.11;100.00
12759;BME280;20944;47.048;15.390;2024-02-26T06:21:17;96370.47;;;2.29;100.00
12759;BME280;20944;47.048;15.390;2024-02-26T06:23:45;96372.75;;;2.49;100.00
12759;BME280;20944;47.048;15.390;2024-02-26T06:26:14;96338.56;;;2.33;100.00
12759;BME280;20944;47.048;15.390;2024-02-26T06:28:43;96373.41;;;2.60;100.00
12759;BME280;20944;47.048;15.390;2024-02-26T06:31:12;96375.97;;;2.61;100.00
12759;BME280;20944;47.048;15.390;2024-02-26T06:33:41;96383.44;;;2.78;100.00
12759;BME280;20944;47.048;15.390;2024-02-26T06:36:12;96192.16;;;1.81;100.00
12759;BME280;20944;47.048;15.390;2024-02-26T06:38:42;96350.53;;;2.86;100.00
12759;BME280;20944;47.048;15.390;2024-02-26T06:41:11;96382.91;;;3.07;100.00
12759;BME280;20944;47.048;15.390;2024-02-26T06:43:39;96392.28;;;3.13;100.00
12759;BME280;20944;47.048;15.390;2024-02-26T06:46:08;96363.88;;;3.11;100.00
12759;BME280;20944;47.048;15.390;2024-02-26T06:48:37;96386.75;;;3.31;100.00
12759;BME280;20944;47.048;15.390;2024-02-26T06:51:07;96384.81;;;3.42;100.00
12759;BME280;20944;47.048;15.390;2024-02-26T06:53:36;96389.06;;;3.45;100.00
12759;BME280;20944;47.048;15.390;2024-02-26T06:56:07;96400.19;;;3.50;100.00
12759;BME280;20944;47.048;15.390;2024-02-26T06:58:37;96340.28;;;3.25;100.00
12759;BME280;20944;47.048;15.390;2024-02-26T07:01:06;96398.22;;;3.63;100.00
12759;BME280;20944;47.048;15.390;2024-02-26T07:03:35;96393.03;;;3.63;100.00
12759;BME280;20944;47.048;15.390;2024-02-26T07:06:04;96401.44;;;3.74;100.00
12759;BME280;20944;47.048;15.390;2024-02-26T07:08:33;96402.03;;;3.87;100.00
12759;BME280;20944;47.048;15.390;2024-02-26T07:11:02;96341.16;;;3.67;100.00
12759;BME280;20944;47.048;15.390;2024-02-26T07:13:32;96342.41;;;3.88;100.00
12759;BME280;20944;47.048;15.390;2024-02-26T07:16:00;96397.84;;;4.20;100.00
12759;BME280;20944;47.048;15.390;2024-02-26T07:18:29;96405.28;;;4.35;100.00
12759;BME280;20944;47.048;15.390;2024-02-26T07:20:58;96409.28;;;4.48;100.00
12759;BME280;20944;47.048;15.390;2024-02-26T07:23:26;96381.84;;;4.38;100.00
12759;BME280;20944;47.048;15.390;2024-02-26T07:25:54;96389.44;;;4.46;100.00
12759;BME280;20944;47.048;15.390;2024-02-26T07:28:24;96405.56;;;4.60;100.00
12759;BME280;20944;47.048;15.390;2024-02-26T07:30:54;96399.94;;;4.77;100.00
12759;BME280;20944;47.048;15.390;2024-02-26T07:33:23;96353.84;;;4.54;100.00
12759;BME280;20944;47.048;15.390;2024-02-26T07:35:51;96366.03;;;4.83;100.00
12759;BME280;20944;47.048;15.390;2024-02-26T07:38:20;96360.59;;;4.94;100.00
12759;BME280;20944;47.048;15.390;2024-02-26T07:41:07;96405.53;;;5.28;100.00
12759;BME280;20944;47.048;15.390;2024-02-26T07:43:36;96395.00;;;5.34;100.00
12759;BME280;20944;47.048;15.390;2024-02-26T07:46:06;96387.56;;;5.52;100.00
12759;BME280;20944;47.048;15.390;2024-02-26T07:48:34;96407.59;;;5.78;100.00
12759;BME280;20944;47.048;15.390;2024-02-26T07:51:03;96383.16;;;5.85;100.00
12759;BME280;20944;47.048;15.390;2024-02-26T07:53:32;96392.91;;;6.08;100.00
12759;BME280;20944;47.048;15.390;2024-02-26T07:56:01;96391.59;;;6.22;100.00
12759;BME280;20944;47.048;15.390;2024-02-26T07:58:30;96385.03;;;6.09;100.00
12759;BME280;20944;47.048;15.390;2024-02-26T08:01:00;96207.19;;;5.32;100.00
12759;BME280;20944;47.048;15.390;2024-02-26T08:03:30;96410.13;;;6.68;100.00
12759;BME280;20944;47.048;15.390;2024-02-26T08:05:59;96428.59;;;6.87;100.00
12759;BME280;20944;47.048;15.390;2024-02-26T08:08:27;96427.22;;;7.01;100.00
12759;BME280;20944;47.048;15.390;2024-02-26T08:10:56;96398.69;;;6.98;100.00
12759;BME280;20944;47.048;15.390;2024-02-26T08:13:24;96429.13;;;7.23;100.00
12759;BME280;20944;47.048;15.390;2024-02-26T08:15:53;96425.41;;;7.30;100.00
12759;BME280;20944;47.048;15.390;2024-02-26T08:18:22;96346.84;;;6.91;100.00
12759;BME280;20944;47.048;15.390;2024-02-26T08:20:52;96411.47;;;7.31;100.00
12759;BME280;20944;47.048;15.390;2024-02-26T08:23:20;96432.59;;;7.48;100.00
12759;BME280;20944;47.048;15.390;2024-02-26T08:25:51;96399.59;;;7.47;100.00
12759;BME280;20944;47.048;15.390;2024-02-26T08:28:20;96361.22;;;7.27;100.00
12759;BME280;20944;47.048;15.390;2024-02-26T08:30:48;96431.81;;;7.70;100.00
12759;BME280;20944;47.048;15.390;2024-02-26T08:33:16;96439.41;;;7.76;100.00
12759;BME280;20944;47.048;15.390;2024-02-26T08:35:45;96424.53;;;7.79;100.00
12759;BME280;20944;47.048;15.390;2024-02-26T08:38:15;96422.31;;;7.92;100.00
12759;BME280;20944;47.048;15.390;2024-02-26T08:40:44;96430.53;;;8.05;100.00
12759;BME280;20944;47.048;15.390;2024-02-26T08:43:12;96430.88;;;8.19;100.00
12759;BME280;20944;47.048;15.390;2024-02-26T08:45:41;96431.78;;;8.18;99.61
12759;BME280;20944;47.048;15.390;2024-02-26T08:48:09;96431.03;;;8.38;97.63
12759;BME280;20944;47.048;15.390;2024-02-26T08:50:38;96383.28;;;8.13;97.29
12759;BME280;20944;47.048;15.390;2024-02-26T08:53:06;96438.03;;;8.59;96.98
12759;BME280;20944;47.048;15.390;2024-02-26T08:55:40;96430.63;;;8.71;96.62
12759;BME280;20944;47.048;15.390;2024-02-26T08:58:09;96432.75;;;8.83;96.08
12759;BME280;20944;47.048;15.390;2024-02-26T09:00:37;96402.56;;;8.76;94.69
12759;BME280;20944;47.048;15.390;2024-02-26T09:03:06;96437.31;;;9.00;94.00
12759;BME280;20944;47.048;15.390;2024-02-26T09:05:34;96433.34;;;9.11;94.39
12759;BME280;20944;47.048;15.390;2024-02-26T09:08:03;96431.19;;;9.21;92.51
12759;BME280;20944;47.048;15.390;2024-02-26T09:10:32;96424.78;;;9.28;91.26
12759;BME280;20944;47.048;15.390;2024-02-26T09:13:02;96428.63;;;9.40;90.36
12759;BME280;20944;47.048;15.390;2024-02-26T09:15:31;96395.09;;;9.29;91.61
12759;BME280;20944;47.048;15.390;2024-02-26T09:17:59;96423.06;;;9.48;90.96
12759;BME280;20944;47.048;15.390;2024-02-26T09:20:28;96392.75;;;9.23;88.34
12759;BME280;20944;47.048;15.390;2024-02-26T09:22:57;96407.88;;;9.37;86.43
12759;BME280;20944;47.048;15.390;2024-02-26T09:25:26;96427.91;;;9.36;85.95
12759;BME280;20944;47.048;15.390;2024-02-26T09:27:54;96432.34;;;9.34;87.76
12759;BME280;20944;47.048;15.390;2024-02-26T09:30:24;96420.47;;;9.27;85.66
12759;BME280;20944;47.048;15.390;2024-02-26T09:32:53;96432.63;;;9.28;85.56
12759;BME280;20944;47.048;15.390;2024-02-26T09:35:21;96412.94;;;9.19;85.41
12759;BME280;20944;47.048;15.390;2024-02-26T09:37:50;96416.16;;;9.26;87.53
12759;BME280;20944;47.048;15.390;2024-02-26T09:40:19;96411.63;;;9.30;89.45
12759;BME280;20944;47.048;15.390;2024-02-26T09:42:47;96405.88;;;9.42;88.72
12759;BME280;20944;47.048;15.390;2024-02-26T09:45:18;96417.38;;;9.58;86.62
12759;BME280;20944;47.048;15.390;2024-02-26T09:47:49;96413.50;;;9.67;87.80
12759;BME280;20944;47.048;15.390;2024-02-26T09:50:19;96441.09;;;9.74;87.10
12759;BME280;20944;47.048;15.390;2024-02-26T09:52:51;96427.91;;;9.77;88.08
12759;BME280;20944;47.048;15.390;2024-02-26T09:55:20;96442.72;;;9.97;85.32
12759;BME280;20944;47.048;15.390;2024-02-26T09:57:51;96415.41;;;10.03;84.36
12759;BME280;20944;47.048;15.390;2024-02-26T10:00:21;96435.06;;;10.32;82.75
12759;BME280;20944;47.048;15.390;2024-02-26T10:02:52;96442.38;;;10.44;83.06
12759;BME280;20944;47.048;15.390;2024-02-26T10:05:21;96442.63;;;10.57;83.46
12759;BME280;20944;47.048;15.390;2024-02-26T10:07:50;96434.41;;;10.64;81.80
12759;BME280;20944;47.048;15.390;2024-02-26T10:10:19;96403.66;;;10.32;80.50
12759;BME280;20944;47.048;15.390;2024-02-26T10:12:47;96441.53;;;10.79;80.80
12759;BME280;20944;47.048;15.390;2024-02-26T10:15:16;96442.78;;;10.90;78.42
12759;BME280;20944;47.048;15.390;2024-02-26T10:17:44;96445.81;;;10.99;79.62
12759;BME280;20944;47.048;15.390;2024-02-26T10:20:15;96435.72;;;11.09;80.08
12759;BME280;20944;47.048;15.390;2024-02-26T10:22:45;96422.63;;;11.09;76.30
12759;BME280;20944;47.048;15.390;2024-02-26T10:25:14;96374.19;;;10.82;75.99
12759;BME280;20944;47.048;15.390;2024-02-26T10:27:42;96450.09;;;11.37;75.01
12759;BME280;20944;47.048;15.390;2024-02-26T10:30:16;96444.16;;;11.33;74.47
12759;BME280;20944;47.048;15.390;2024-02-26T10:32:47;96439.91;;;11.30;71.69
12759;BME280;20944;47.048;15.390;2024-02-26T10:35:17;96438.22;;;11.29;72.33
12759;BME280;20944;47.048;15.390;2024-02-26T10:37:48;96438.00;;;11.34;71.74
12759;BME280;20944;47.048;15.390;2024-02-26T10:40:17;96442.63;;;11.46;71.29
12759;BME280;20944;47.048;15.390;2024-02-26T10:42:45;96433.34;;;11.56;68.45
12759;BME280;20944;47.048;15.390;2024-02-26T10:45:14;96439.91;;;11.65;68.38
12759;BME280;20944;47.048;15.390;2024-02-26T10:47:42;96438.97;;;11.66;67.02
12759;BME280;20944;47.048;15.390;2024-02-26T10:50:13;96417.94;;;11.50;66.73
12759;BME280;20944;47.048;15.390;2024-02-26T10:52:45;96439.91;;;11.65;69.52
12759;BME280;20944;47.048;15.390;2024-02-26T10:55:15;96446.97;;;11.80;68.05
12759;BME280;20944;47.048;15.390;2024-02-26T10:57:47;96416.59;;;11.76;65.56
12759;BME280;20944;47.048;15.390;2024-02-26T11:00:16;96445.13;;;12.00;65.36
12759;BME280;20944;47.048;15.390;2024-02-26T11:02:46;96443.66;;;11.94;61.64
12759;BME280;20944;47.048;15.390;2024-02-26T11:05:15;96438.41;;;11.94;63.69
12759;BME280;20944;47.048;15.390;2024-02-26T11:07:45;96424.91;;;12.02;65.09
12759;BME280;20944;47.048;15.390;2024-02-26T11:10:15;96429.97;;;12.05;65.36
12759;BME280;20944;47.048;15.390;2024-02-26T11:12:46;96365.75;;;11.61;66.13
12759;BME280;20944;47.048;15.390;2024-02-26T11:15:15;96440.97;;;11.96;66.49
12759;BME280;20944;47.048;15.390;2024-02-26T11:17:46;96428.19;;;11.90;65.26
12759;BME280;20944;47.048;15.390;2024-02-26T11:20:16;96426.47;;;11.88;64.12
12759;BME280;20944;47.048;15.390;2024-02-26T11:22:47;96422.22;;;11.86;65.53
12759;BME280;20944;47.048;15.390;2024-02-26T11:25:15;96412.44;;;11.90;66.41
12759;BME280;20944;47.048;15.390;2024-02-26T11:27:48;96416.25;;;12.00;66.75
12759;BME280;20944;47.048;15.390;2024-02-26T11:30:18;96413.81;;;12.12;62.88
12759;BME280;20944;47.048;15.390;2024-02-26T11:32:48;96366.25;;;11.85;62.82
12759;BME280;20944;47.048;15.390;2024-02-26T11:35:18;96416.06;;;12.20;61.68
12759;BME280;20944;47.048;15.390;2024-02-26T11:37:55;96404.94;;;12.15;60.81
12759;BME280;20944;47.048;15.390;2024-02-26T11:40:25;96406.97;;;12.10;59.46
12759;BME280;20944;47.048;15.390;2024-02-26T11:42:54;96371.91;;;11.60;59.61
12759;BME280;20944;47.048;15.390;2024-02-26T11:45:55;96406.47;;;11.86;60.75
12759;BME280;20944;47.048;15.390;2024-02-26T11:48:28;96389.50;;;12.09;62.01
12759;BME280;20944;47.048;15.390;2024-02-26T11:50:57;96294.72;;;11.82;59.40
12759;BME280;20944;47.048;15.390;2024-02-26T11:53:28;96372.84;;;12.41;59.75
12759;BME280;20944;47.048;15.390;2024-02-26T11:56:20;96402.66;;;12.72;59.08
12759;BME280;20944;47.048;15.390;2024-02-26T11:59:03;96396.47;;;12.73;61.16
12759;BME280;20944;47.048;15.390;2024-02-26T12:01:42;96395.63;;;12.57;61.05
12759;BME280;20944;47.048;15.390;2024-02-26T12:04:16;96352.34;;;12.17;60.17
12759;BME280;20944;47.048;15.390;2024-02-26T12:06:46;96398.69;;;12.33;63.08
12759;BME280;20944;47.048;15.390;2024-02-26T12:09:32;96385.44;;;12.19;63.32
12759;BME280;20944;47.048;15.390;2024-02-26T12:12:02;96384.06;;;12.12;63.45
12759;BME280;20944;47.048;15.390;2024-02-26T12:14:33;96389.28;;;12.13;65.45
12759;BME280;20944;47.048;15.390;2024-02-26T12:17:03;96385.78;;;12.13;66.32
12759;BME280;20944;47.048;15.390;2024-02-26T12:19:35;96305.88;;;11.70;66.55
12759;BME280;20944;47.048;15.390;2024-02-26T12:22:08;96378.94;;;12.26;64.97
12759;BME280;20944;47.048;15.390;2024-02-26T12:24:42;96375.09;;;12.32;65.90
12759;BME280;20944;47.048;15.390;2024-02-26T12:27:11;96319.94;;;12.00;65.16
12759;BME280;20944;47.048;15.390;2024-02-26T12:29:40;96372.00;;;12.41;64.01
12759;BME280;20944;47.048;15.390;2024-02-26T12:32:08;96377.56;;;12.51;63.63
12759;BME280;20944;47.048;15.390;2024-02-26T12:34:38;96385.72;;;12.62;65.08
12759;BME280;20944;47.048;15.390;2024-02-26T12:37:07;96388.34;;;12.62;60.61
12759;BME280;20944;47.048;15.390;2024-02-26T12:39:38;96385.34;;;12.84;61.06
12759;BME280;20944;47.048;15.390;2024-02-26T12:42:08;96363.66;;;13.10;61.67
12759;BME280;20944;47.048;15.390;2024-02-26T12:44:37;96372.16;;;13.60;61.23
12759;BME280;20944;47.048;15.390;2024-02-26T12:47:06;96379.63;;;14.10;58.77
12759;BME280;20944;47.048;15.390;2024-02-26T12:49:34;96364.81;;;14.36;56.66
12759;BME280;20944;47.048;15.390;2024-02-26T12:52:04;96367.66;;;14.33;56.36
12759;BME280;20944;47.048;15.390;2024-02-26T12:54:33;96370.19;;;14.35;56.86
12759;BME280;20944;47.048;15.390;2024-02-26T12:57:04;96369.69;;;14.42;55.14
12759;BME280;20944;47.048;15.390;2024-02-26T12:59:35;96364.06;;;14.48;55.83
12759;BME280;20944;47.048;15.390;2024-02-26T13:02:04;96379.31;;;14.70;53.99